sensor_id;sensor_type;location;lat;lon;timestamp;P1;durP1;ratioP1;P2;durP2;ratioP2
75963;SDS011;65820;44.726;37.764;2023-02-10T00:01:40;3.28;;;1.25;;
75963;SDS011;65820;44.726;37.764;2023-02-10T00:02:24;3.78;;;1.60;;
75963;SDS011;65820;44.726;37.764;2023-02-10T00:03:26;3.25;;;1.38;;
75963;SDS011;65820;44.726;37.764;2023-02-10T00:04:27;3.92;;;1.77;;
75963;SDS011;65820;44.726;37.764;2023-02-10T00:05:28;2.88;;;1.20;;
75963;SDS011;65820;44.726;37.764;2023-02-10T00:06:30;3.83;;;1.20;;
75963;SDS011;65820;44.726;37.764;2023-02-10T00:07:32;3.50;;;1.48;;
75963;SDS011;65820;44.726;37.764;2023-02-10T00:08:33;4.10;;;1.60;;
75963;SDS011;65820;44.726;37.764;2023-02-10T00:09:34;3.25;;;1.30;;
75963;SDS011;65820;44.726;37.764;2023-02-10T00:10:36;3.78;;;1.52;;
75963;SDS011;65820;44.726;37.764;2023-02-10T00:11:37;2.75;;;1.13;;
75963;SDS011;65820;44.726;37.764;2023-02-10T00:14:15;3.05;;;1.10;;
75963;SDS011;65820;44.726;37.764;2023-02-10T00:15:17;3.03;;;1.20;;
75963;SDS011;65820;44.726;37.764;2023-02-10T00:16:19;3.22;;;1.27;;
75963;SDS011;65820;44.726;37.764;2023-02-10T00:17:20;2.92;;;1.20;;
75963;SDS011;65820;44.726;37.764;2023-02-10T00:18:27;2.55;;;1.13;;
75963;SDS011;65820;44.726;37.764;2023-02-10T00:19:29;3.50;;;1.40;;
75963;SDS011;65820;44.726;37.764;2023-02-10T00:20:34;4.38;;;1.30;;
75963;SDS011;65820;44.726;37.764;2023-02-10T00:21:36;3.97;;;1.30;;
75963;SDS011;65820;44.726;37.764;2023-02-10T00:22:37;3.95;;;1.33;;
75963;SDS011;65820;44.726;37.764;2023-02-10T00:23:39;4.03;;;1.40;;
75963;SDS011;65820;44.726;37.764;2023-02-10T00:24:40;3.42;;;1.70;;
75963;SDS011;65820;44.726;37.764;2023-02-10T00:25:42;3.20;;;1.23;;
75963;SDS011;65820;44.726;37.764;2023-02-10T00:26:43;3.63;;;1.35;;
75963;SDS011;65820;44.726;37.764;2023-02-10T00:27:45;2.97;;;1.23;;
75963;SDS011;65820;44.726;37.764;2023-02-10T00:28:46;4.07;;;1.40;;
75963;SDS011;65820;44.726;37.764;2023-02-10T00:29:47;3.20;;;1.50;;
75963;SDS011;65820;44.726;37.764;2023-02-10T00:30:50;3.72;;;1.60;;
75963;SDS011;65820;44.726;37.764;2023-02-10T00:31:51;4.00;;;1.40;;
75963;SDS011;65820;44.726;37.764;2023-02-10T00:32:53;3.10;;;1.15;;
75963;SDS011;65820;44.726;37.764;2023-02-10T00:33:54;2.45;;;1.13;;
75963;SDS011;65820;44.726;37.764;2023-02-10T00:34:56;3.60;;;1.52;;
75963;SDS011;65820;44.726;37.764;2023-02-10T00:35:57;2.78;;;1.15;;
75963;SDS011;65820;44.726;37.764;2023-02-10T00:36:59;2.95;;;1.17;;
75963;SDS011;65820;44.726;37.764;2023-02-10T00:38:00;3.20;;;1.23;;
75963;SDS011;65820;44.726;37.764;2023-02-10T00:39:01;3.65;;;1.30;;
75963;SDS011;65820;44.726;37.764;2023-02-10T00:40:03;2.63;;;1.10;;
75963;SDS011;65820;44.726;37.764;2023-02-10T00:42:07;3.45;;;1.20;;
75963;SDS011;65820;44.726;37.764;2023-02-10T00:43:09;2.92;;;1.20;;
75963;SDS011;65820;44.726;37.764;2023-02-10T00:44:11;3.10;;;1.35;;
75963;SDS011;65820;44.726;37.764;2023-02-10T00:45:12;3.67;;;1.50;;
75963;SDS011;65820;44.726;37.764;2023-02-10T00:46:14;3.63;;;1.50;;
75963;SDS011;65820;44.726;37.764;2023-02-10T00:52:42;3.25;;;1.30;;
75963;SDS011;65820;44.726;37.764;2023-02-10T00:53:43;3.78;;;1.38;;
75963;SDS011;65820;44.726;37.764;2023-02-10T00:54:45;3.90;;;1.40;;
75963;SDS011;65820;44.726;37.764;2023-02-10T00:57:04;3.00;;;1.10;;
75963;SDS011;65820;44.726;37.764;2023-02-10T00:58:05;3.15;;;1.23;;
75963;SDS011;65820;44.726;37.764;2023-02-10T00:59:07;4.05;;;1.40;;
75963;SDS011;65820;44.726;37.764;2023-02-10T01:00:09;3.13;;;1.20;;
75963;SDS011;65820;44.726;37.764;2023-02-10T01:01:11;3.05;;;1.15;;
75963;SDS011;65820;44.726;37.764;2023-02-10T01:03:02;2.85;;;1.05;;
75963;SDS011;65820;44.726;37.764;2023-02-10T01:04:06;3.67;;;1.20;;
75963;SDS011;65820;44.726;37.764;2023-02-10T01:05:07;3.00;;;1.10;;
75963;SDS011;65820;44.726;37.764;2023-02-10T01:06:09;2.67;;;1.10;;
75963;SDS011;65820;44.726;37.764;2023-02-10T01:07:13;3.83;;;1.30;;
75963;SDS011;65820;44.726;37.764;2023-02-10T01:08:17;4.20;;;1.38;;
75963;SDS011;65820;44.726;37.764;2023-02-10T01:09:19;2.50;;;1.10;;
75963;SDS011;65820;44.726;37.764;2023-02-10T01:10:22;3.47;;;1.20;;
75963;SDS011;65820;44.726;37.764;2023-02-10T01:11:24;4.22;;;1.50;;
75963;SDS011;65820;44.726;37.764;2023-02-10T01:12:25;2.97;;;1.30;;
75963;SDS011;65820;44.726;37.764;2023-02-10T01:13:26;2.97;;;1.25;;
75963;SDS011;65820;44.726;37.764;2023-02-10T01:14:29;3.35;;;1.38;;
75963;SDS011;65820;44.726;37.764;2023-02-10T01:15:30;3.05;;;1.30;;
75963;SDS011;65820;44.726;37.764;2023-02-10T01:18:26;2.88;;;1.35;;
75963;SDS011;65820;44.726;37.764;2023-02-10T01:21:14;3.70;;;1.30;;
75963;SDS011;65820;44.726;37.764;2023-02-10T01:22:17;3.40;;;1.50;;
75963;SDS011;65820;44.726;37.764;2023-02-10T01:23:19;2.67;;;1.08;;
75963;SDS011;65820;44.726;37.764;2023-02-10T01:24:20;3.15;;;1.15;;
75963;SDS011;65820;44.726;37.764;2023-02-10T01:25:21;3.22;;;1.50;;
75963;SDS011;65820;44.726;37.764;2023-02-10T01:26:24;3.03;;;1.27;;
75963;SDS011;65820;44.726;37.764;2023-02-10T01:27:26;3.15;;;1.33;;
75963;SDS011;65820;44.726;37.764;2023-02-10T01:28:27;2.97;;;1.30;;
75963;SDS011;65820;44.726;37.764;2023-02-10T01:29:29;3.53;;;1.83;;
75963;SDS011;65820;44.726;37.764;2023-02-10T01:30:30;3.20;;;1.60;;
75963;SDS011;65820;44.726;37.764;2023-02-10T01:31:33;3.20;;;1.27;;
75963;SDS011;65820;44.726;37.764;2023-02-10T01:32:35;2.85;;;1.10;;
75963;SDS011;65820;44.726;37.764;2023-02-10T01:33:38;2.90;;;1.42;;
75963;SDS011;65820;44.726;37.764;2023-02-10T01:34:42;2.67;;;1.17;;
75963;SDS011;65820;44.726;37.764;2023-02-10T01:35:44;2.65;;;1.30;;
75963;SDS011;65820;44.726;37.764;2023-02-10T01:36:45;4.03;;;1.60;;
75963;SDS011;65820;44.726;37.764;2023-02-10T01:37:47;3.95;;;1.30;;
75963;SDS011;65820;44.726;37.764;2023-02-10T01:38:48;3.17;;;1.35;;
75963;SDS011;65820;44.726;37.764;2023-02-10T01:39:50;3.42;;;1.48;;
75963;SDS011;65820;44.726;37.764;2023-02-10T01:40:52;3.50;;;1.50;;
75963;SDS011;65820;44.726;37.764;2023-02-10T01:41:53;2.95;;;1.10;;
75963;SDS011;65820;44.726;37.764;2023-02-10T01:42:57;3.08;;;1.30;;
75963;SDS011;65820;44.726;37.764;2023-02-10T01:45:12;2.70;;;1.20;;
75963;SDS011;65820;44.726;37.764;2023-02-10T01:46:16;4.25;;;1.60;;
75963;SDS011;65820;44.726;37.764;2023-02-10T01:47:17;3.60;;;1.50;;
75963;SDS011;65820;44.726;37.764;2023-02-10T01:48:23;3.70;;;1.52;;
75963;SDS011;65820;44.726;37.764;2023-02-10T01:49:28;3.03;;;1.25;;
75963;SDS011;65820;44.726;37.764;2023-02-10T01:50:38;3.58;;;1.50;;
75963;SDS011;65820;44.726;37.764;2023-02-10T01:52:03;4.28;;;1.55;;
75963;SDS011;65820;44.726;37.764;2023-02-10T01:53:07;3.70;;;1.60;;
75963;SDS011;65820;44.726;37.764;2023-02-10T01:54:15;3.05;;;1.55;;
75963;SDS011;65820;44.726;37.764;2023-02-10T01:56:35;4.28;;;1.63;;
75963;SDS011;65820;44.726;37.764;2023-02-10T01:57:37;3.78;;;1.52;;
75963;SDS011;65820;44.726;37.764;2023-02-10T01:58:40;4.70;;;1.60;;
75963;SDS011;65820;44.726;37.764;2023-02-10T01:59:44;3.70;;;1.70;;
75963;SDS011;65820;44.726;37.764;2023-02-10T02:00:46;4.05;;;1.60;;
75963;SDS011;65820;44.726;37.764;2023-02-10T02:01:48;3.78;;;1.55;;
75963;SDS011;65820;44.726;37.764;2023-02-10T02:02:50;3.60;;;1.65;;
75963;SDS011;65820;44.726;37.764;2023-02-10T02:03:51;4.15;;;1.88;;
75963;SDS011;65820;44.726;37.764;2023-02-10T02:04:58;3.38;;;1.58;;
75963;SDS011;65820;44.726;37.764;2023-02-10T02:06:02;3.42;;;1.73;;
75963;SDS011;65820;44.726;37.764;2023-02-10T02:07:03;3.88;;;1.77;;
75963;SDS011;65820;44.726;37.764;2023-02-10T02:08:09;3.80;;;1.80;;
75963;SDS011;65820;44.726;37.764;2023-02-10T02:09:16;3.47;;;1.50;;
75963;SDS011;65820;44.726;37.764;2023-02-10T02:10:18;4.53;;;1.80;;
75963;SDS011;65820;44.726;37.764;2023-02-10T02:14:53;5.13;;;1.98;;
75963;SDS011;65820;44.726;37.764;2023-02-10T02:18:36;5.25;;;2.22;;
75963;SDS011;65820;44.726;37.764;2023-02-10T02:23:07;4.10;;;1.48;;
75963;SDS011;65820;44.726;37.764;2023-02-10T02:26:42;3.80;;;1.95;;
75963;SDS011;65820;44.726;37.764;2023-02-10T02:29:05;4.70;;;1.52;;
75963;SDS011;65820;44.726;37.764;2023-02-10T02:30:40;4.65;;;1.60;;
75963;SDS011;65820;44.726;37.764;2023-02-10T02:32:09;4.30;;;1.75;;
75963;SDS011;65820;44.726;37.764;2023-02-10T02:34:30;4.13;;;1.60;;
75963;SDS011;65820;44.726;37.764;2023-02-10T02:35:43;4.25;;;1.85;;
75963;SDS011;65820;44.726;37.764;2023-02-10T02:37:58;4.20;;;1.70;;
75963;SDS011;65820;44.726;37.764;2023-02-10T02:39:01;4.57;;;1.60;;
75963;SDS011;65820;44.726;37.764;2023-02-10T02:40:05;5.18;;;1.75;;
75963;SDS011;65820;44.726;37.764;2023-02-10T02:41:07;4.28;;;1.50;;
75963;SDS011;65820;44.726;37.764;2023-02-10T02:43:24;4.90;;;1.70;;
75963;SDS011;65820;44.726;37.764;2023-02-10T02:44:26;4.05;;;1.63;;
75963;SDS011;65820;44.726;37.764;2023-02-10T02:45:48;4.95;;;1.60;;
75963;SDS011;65820;44.726;37.764;2023-02-10T02:49:33;4.78;;;1.75;;
75963;SDS011;65820;44.726;37.764;2023-02-10T02:51:30;5.00;;;1.90;;
75963;SDS011;65820;44.726;37.764;2023-02-10T02:52:04;4.22;;;1.70;;
75963;SDS011;65820;44.726;37.764;2023-02-10T02:55:12;4.38;;;1.73;;
75963;SDS011;65820;44.726;37.764;2023-02-10T03:00:27;4.18;;;1.77;;
75963;SDS011;65820;44.726;37.764;2023-02-10T03:01:39;4.60;;;1.77;;
75963;SDS011;65820;44.726;37.764;2023-02-10T03:02:44;4.25;;;1.70;;
75963;SDS011;65820;44.726;37.764;2023-02-10T03:03:47;4.25;;;1.70;;
75963;SDS011;65820;44.726;37.764;2023-02-10T03:04:48;3.28;;;1.48;;
75963;SDS011;65820;44.726;37.764;2023-02-10T03:05:50;6.60;;;1.88;;
75963;SDS011;65820;44.726;37.764;2023-02-10T03:06:51;5.13;;;1.80;;
75963;SDS011;65820;44.726;37.764;2023-02-10T03:07:52;4.60;;;2.05;;
75963;SDS011;65820;44.726;37.764;2023-02-10T03:08:54;3.80;;;1.50;;
75963;SDS011;65820;44.726;37.764;2023-02-10T03:09:55;4.30;;;1.52;;
75963;SDS011;65820;44.726;37.764;2023-02-10T03:10:57;4.07;;;1.75;;
75963;SDS011;65820;44.726;37.764;2023-02-10T03:11:58;5.28;;;1.67;;
75963;SDS011;65820;44.726;37.764;2023-02-10T03:13:00;4.15;;;1.80;;
75963;SDS011;65820;44.726;37.764;2023-02-10T03:14:01;4.78;;;1.88;;
75963;SDS011;65820;44.726;37.764;2023-02-10T03:15:03;4.10;;;1.60;;
75963;SDS011;65820;44.726;37.764;2023-02-10T03:16:04;4.72;;;1.80;;
75963;SDS011;65820;44.726;37.764;2023-02-10T03:17:06;5.32;;;1.73;;
75963;SDS011;65820;44.726;37.764;2023-02-10T03:18:07;4.68;;;1.80;;
75963;SDS011;65820;44.726;37.764;2023-02-10T03:19:08;5.22;;;1.67;;
75963;SDS011;65820;44.726;37.764;2023-02-10T03:20:10;4.30;;;1.60;;
75963;SDS011;65820;44.726;37.764;2023-02-10T03:21:12;5.75;;;1.92;;
75963;SDS011;65820;44.726;37.764;2023-02-10T03:22:13;3.97;;;1.40;;
75963;SDS011;65820;44.726;37.764;2023-02-10T03:24:33;4.40;;;1.75;;
75963;SDS011;65820;44.726;37.764;2023-02-10T03:25:34;4.15;;;1.88;;
75963;SDS011;65820;44.726;37.764;2023-02-10T03:26:36;4.78;;;2.00;;
75963;SDS011;65820;44.726;37.764;2023-02-10T03:27:38;5.05;;;1.80;;
75963;SDS011;65820;44.726;37.764;2023-02-10T03:28:39;4.78;;;1.73;;
75963;SDS011;65820;44.726;37.764;2023-02-10T03:29:40;5.38;;;1.77;;
75963;SDS011;65820;44.726;37.764;2023-02-10T03:30:42;4.32;;;1.50;;
75963;SDS011;65820;44.726;37.764;2023-02-10T03:31:47;4.38;;;1.92;;
75963;SDS011;65820;44.726;37.764;2023-02-10T03:32:49;4.30;;;1.67;;
75963;SDS011;65820;44.726;37.764;2023-02-10T03:33:52;5.13;;;1.85;;
75963;SDS011;65820;44.726;37.764;2023-02-10T03:34:53;5.13;;;1.92;;
75963;SDS011;65820;44.726;37.764;2023-02-10T03:35:55;4.90;;;1.73;;
75963;SDS011;65820;44.726;37.764;2023-02-10T03:36:58;4.30;;;1.63;;
75963;SDS011;65820;44.726;37.764;2023-02-10T03:37:59;4.30;;;1.83;;
75963;SDS011;65820;44.726;37.764;2023-02-10T03:39:01;4.75;;;1.83;;
75963;SDS011;65820;44.726;37.764;2023-02-10T03:40:04;6.28;;;1.83;;
75963;SDS011;65820;44.726;37.764;2023-02-10T03:41:05;4.97;;;2.13;;
75963;SDS011;65820;44.726;37.764;2023-02-10T03:42:07;4.75;;;1.60;;
75963;SDS011;65820;44.726;37.764;2023-02-10T03:43:09;4.63;;;1.77;;
75963;SDS011;65820;44.726;37.764;2023-02-10T03:44:10;4.13;;;1.90;;
75963;SDS011;65820;44.726;37.764;2023-02-10T03:45:12;5.63;;;2.13;;
75963;SDS011;65820;44.726;37.764;2023-02-10T03:46:13;4.93;;;1.92;;
75963;SDS011;65820;44.726;37.764;2023-02-10T03:47:14;5.45;;;1.73;;
75963;SDS011;65820;44.726;37.764;2023-02-10T03:48:16;5.30;;;1.90;;
75963;SDS011;65820;44.726;37.764;2023-02-10T03:49:17;4.57;;;1.65;;
75963;SDS011;65820;44.726;37.764;2023-02-10T03:50:18;5.10;;;1.90;;
75963;SDS011;65820;44.726;37.764;2023-02-10T03:52:52;6.95;;;1.90;;
75963;SDS011;65820;44.726;37.764;2023-02-10T03:53:54;4.57;;;1.92;;
75963;SDS011;65820;44.726;37.764;2023-02-10T03:54:56;4.70;;;1.90;;
75963;SDS011;65820;44.726;37.764;2023-02-10T03:55:57;5.13;;;1.83;;
75963;SDS011;65820;44.726;37.764;2023-02-10T03:56:59;6.22;;;1.70;;
75963;SDS011;65820;44.726;37.764;2023-02-10T03:58:01;6.63;;;1.92;;
75963;SDS011;65820;44.726;37.764;2023-02-10T04:01:35;4.18;;;1.58;;
75963;SDS011;65820;44.726;37.764;2023-02-10T04:02:36;5.60;;;2.03;;
75963;SDS011;65820;44.726;37.764;2023-02-10T04:03:38;5.03;;;1.90;;
75963;SDS011;65820;44.726;37.764;2023-02-10T04:04:39;3.95;;;1.73;;
75963;SDS011;65820;44.726;37.764;2023-02-10T04:05:41;4.72;;;1.77;;
75963;SDS011;65820;44.726;37.764;2023-02-10T04:06:42;3.92;;;1.80;;
75963;SDS011;65820;44.726;37.764;2023-02-10T04:07:43;5.03;;;2.03;;
75963;SDS011;65820;44.726;37.764;2023-02-10T04:08:46;6.80;;;1.92;;
75963;SDS011;65820;44.726;37.764;2023-02-10T04:09:48;3.58;;;1.30;;
75963;SDS011;65820;44.726;37.764;2023-02-10T04:10:49;5.05;;;1.63;;
75963;SDS011;65820;44.726;37.764;2023-02-10T04:11:51;4.47;;;1.40;;
75963;SDS011;65820;44.726;37.764;2023-02-10T04:12:52;3.88;;;1.40;;
75963;SDS011;65820;44.726;37.764;2023-02-10T04:13:53;3.95;;;1.60;;
75963;SDS011;65820;44.726;37.764;2023-02-10T04:14:55;4.05;;;1.35;;
75963;SDS011;65820;44.726;37.764;2023-02-10T04:16:00;3.42;;;1.55;;
75963;SDS011;65820;44.726;37.764;2023-02-10T04:17:05;5.63;;;1.73;;
75963;SDS011;65820;44.726;37.764;2023-02-10T04:18:06;8.20;;;1.90;;
75963;SDS011;65820;44.726;37.764;2023-02-10T04:19:08;7.03;;;2.00;;
75963;SDS011;65820;44.726;37.764;2023-02-10T04:20:09;5.05;;;1.58;;
75963;SDS011;65820;44.726;37.764;2023-02-10T04:21:11;7.05;;;2.15;;
75963;SDS011;65820;44.726;37.764;2023-02-10T04:23:24;10.10;;;2.42;;
75963;SDS011;65820;44.726;37.764;2023-02-10T04:24:25;11.23;;;2.75;;
75963;SDS011;65820;44.726;37.764;2023-02-10T04:25:27;12.35;;;2.80;;
75963;SDS011;65820;44.726;37.764;2023-02-10T04:26:28;15.65;;;2.60;;
75963;SDS011;65820;44.726;37.764;2023-02-10T04:27:29;11.07;;;2.95;;
75963;SDS011;65820;44.726;37.764;2023-02-10T04:28:31;16.60;;;3.30;;
75963;SDS011;65820;44.726;37.764;2023-02-10T04:29:33;13.93;;;2.83;;
75963;SDS011;65820;44.726;37.764;2023-02-10T04:30:39;11.48;;;3.67;;
75963;SDS011;65820;44.726;37.764;2023-02-10T04:31:40;15.48;;;3.50;;
75963;SDS011;65820;44.726;37.764;2023-02-10T04:32:42;15.77;;;4.00;;
75963;SDS011;65820;44.726;37.764;2023-02-10T04:33:43;18.92;;;4.45;;
75963;SDS011;65820;44.726;37.764;2023-02-10T04:34:44;18.67;;;3.80;;
75963;SDS011;65820;44.726;37.764;2023-02-10T04:35:48;18.42;;;5.15;;
75963;SDS011;65820;44.726;37.764;2023-02-10T04:36:50;14.57;;;4.40;;
75963;SDS011;65820;44.726;37.764;2023-02-10T04:37:51;15.90;;;3.90;;
75963;SDS011;65820;44.726;37.764;2023-02-10T04:38:53;14.25;;;3.67;;
75963;SDS011;65820;44.726;37.764;2023-02-10T04:39:54;16.85;;;3.92;;
75963;SDS011;65820;44.726;37.764;2023-02-10T04:40:55;16.83;;;4.47;;
75963;SDS011;65820;44.726;37.764;2023-02-10T04:41:57;14.52;;;4.00;;
75963;SDS011;65820;44.726;37.764;2023-02-10T04:42:58;15.95;;;3.63;;
75963;SDS011;65820;44.726;37.764;2023-02-10T04:43:59;14.57;;;3.60;;
75963;SDS011;65820;44.726;37.764;2023-02-10T04:45:00;13.27;;;3.63;;
75963;SDS011;65820;44.726;37.764;2023-02-10T04:46:02;15.15;;;3.92;;
75963;SDS011;65820;44.726;37.764;2023-02-10T04:47:04;13.63;;;4.00;;
75963;SDS011;65820;44.726;37.764;2023-02-10T04:48:06;12.77;;;3.75;;
75963;SDS011;65820;44.726;37.764;2023-02-10T04:49:07;16.60;;;4.43;;
75963;SDS011;65820;44.726;37.764;2023-02-10T04:50:09;15.90;;;3.67;;
75963;SDS011;65820;44.726;37.764;2023-02-10T04:51:10;12.50;;;3.03;;
75963;SDS011;65820;44.726;37.764;2023-02-10T04:52:13;15.55;;;4.18;;
75963;SDS011;65820;44.726;37.764;2023-02-10T04:53:14;15.80;;;3.95;;
75963;SDS011;65820;44.726;37.764;2023-02-10T04:54:16;14.77;;;4.70;;
75963;SDS011;65820;44.726;37.764;2023-02-10T04:55:17;13.35;;;4.13;;
75963;SDS011;65820;44.726;37.764;2023-02-10T04:56:19;15.82;;;3.45;;
75963;SDS011;65820;44.726;37.764;2023-02-10T04:57:21;12.50;;;3.65;;
75963;SDS011;65820;44.726;37.764;2023-02-10T04:58:22;11.77;;;3.88;;
75963;SDS011;65820;44.726;37.764;2023-02-10T04:59:24;12.57;;;3.45;;
75963;SDS011;65820;44.726;37.764;2023-02-10T05:00:25;11.60;;;3.50;;
75963;SDS011;65820;44.726;37.764;2023-02-10T05:01:27;12.30;;;3.88;;
75963;SDS011;65820;44.726;37.764;2023-02-10T05:02:28;12.85;;;3.38;;
75963;SDS011;65820;44.726;37.764;2023-02-10T05:03:29;13.90;;;3.47;;
75963;SDS011;65820;44.726;37.764;2023-02-10T05:04:31;13.98;;;4.15;;
75963;SDS011;65820;44.726;37.764;2023-02-10T05:05:32;10.15;;;3.42;;
75963;SDS011;65820;44.726;37.764;2023-02-10T05:06:34;9.07;;;3.08;;
75963;SDS011;65820;44.726;37.764;2023-02-10T05:08:23;12.27;;;3.25;;
75963;SDS011;65820;44.726;37.764;2023-02-10T05:09:25;13.05;;;3.38;;
75963;SDS011;65820;44.726;37.764;2023-02-10T05:10:28;15.07;;;3.88;;
75963;SDS011;65820;44.726;37.764;2023-02-10T05:11:29;10.00;;;3.55;;
75963;SDS011;65820;44.726;37.764;2023-02-10T05:12:30;10.82;;;3.40;;
75963;SDS011;65820;44.726;37.764;2023-02-10T05:13:32;10.60;;;3.22;;
75963;SDS011;65820;44.726;37.764;2023-02-10T05:14:33;9.98;;;3.50;;
75963;SDS011;65820;44.726;37.764;2023-02-10T05:15:34;12.40;;;3.50;;
75963;SDS011;65820;44.726;37.764;2023-02-10T05:16:35;10.07;;;3.45;;
75963;SDS011;65820;44.726;37.764;2023-02-10T05:17:37;9.65;;;3.63;;
75963;SDS011;65820;44.726;37.764;2023-02-10T05:18:38;11.00;;;3.42;;
75963;SDS011;65820;44.726;37.764;2023-02-10T05:19:40;12.13;;;3.25;;
75963;SDS011;65820;44.726;37.764;2023-02-10T05:20:41;11.70;;;3.65;;
75963;SDS011;65820;44.726;37.764;2023-02-10T05:21:43;9.07;;;3.15;;
75963;SDS011;65820;44.726;37.764;2023-02-10T05:22:44;8.45;;;3.22;;
75963;SDS011;65820;44.726;37.764;2023-02-10T05:23:46;9.70;;;2.95;;
75963;SDS011;65820;44.726;37.764;2023-02-10T05:24:47;12.88;;;3.80;;
75963;SDS011;65820;44.726;37.764;2023-02-10T05:25:50;8.55;;;2.78;;
75963;SDS011;65820;44.726;37.764;2023-02-10T05:26:51;11.10;;;3.72;;
75963;SDS011;65820;44.726;37.764;2023-02-10T05:27:53;8.38;;;3.13;;
75963;SDS011;65820;44.726;37.764;2023-02-10T05:28:54;11.20;;;2.85;;
75963;SDS011;65820;44.726;37.764;2023-02-10T05:29:56;8.68;;;3.17;;
75963;SDS011;65820;44.726;37.764;2023-02-10T05:30:57;8.73;;;3.03;;
75963;SDS011;65820;44.726;37.764;2023-02-10T05:31:59;12.52;;;3.72;;
75963;SDS011;65820;44.726;37.764;2023-02-10T05:33:00;10.45;;;3.63;;
75963;SDS011;65820;44.726;37.764;2023-02-10T05:34:02;9.82;;;3.00;;
75963;SDS011;65820;44.726;37.764;2023-02-10T05:35:03;9.43;;;3.75;;
75963;SDS011;65820;44.726;37.764;2023-02-10T05:36:05;8.60;;;2.88;;
75963;SDS011;65820;44.726;37.764;2023-02-10T05:37:06;10.18;;;3.22;;
75963;SDS011;65820;44.726;37.764;2023-02-10T05:38:08;8.20;;;3.47;;
75963;SDS011;65820;44.726;37.764;2023-02-10T05:39:11;9.27;;;3.00;;
75963;SDS011;65820;44.726;37.764;2023-02-10T05:40:24;9.05;;;3.03;;
75963;SDS011;65820;44.726;37.764;2023-02-10T05:41:26;7.68;;;2.45;;
75963;SDS011;65820;44.726;37.764;2023-02-10T05:42:27;9.60;;;3.60;;
75963;SDS011;65820;44.726;37.764;2023-02-10T05:43:29;8.35;;;3.17;;
75963;SDS011;65820;44.726;37.764;2023-02-10T05:44:30;10.82;;;3.38;;
75963;SDS011;65820;44.726;37.764;2023-02-10T05:45:32;8.02;;;3.17;;
75963;SDS011;65820;44.726;37.764;2023-02-10T05:46:34;9.15;;;3.40;;
75963;SDS011;65820;44.726;37.764;2023-02-10T05:47:35;7.30;;;3.15;;
75963;SDS011;65820;44.726;37.764;2023-02-10T05:48:36;9.30;;;2.90;;
75963;SDS011;65820;44.726;37.764;2023-02-10T05:49:38;6.95;;;2.83;;
75963;SDS011;65820;44.726;37.764;2023-02-10T05:50:39;8.00;;;2.88;;
75963;SDS011;65820;44.726;37.764;2023-02-10T05:51:48;8.50;;;2.95;;
75963;SDS011;65820;44.726;37.764;2023-02-10T05:52:49;7.85;;;3.28;;
75963;SDS011;65820;44.726;37.764;2023-02-10T05:53:50;7.57;;;3.03;;
75963;SDS011;65820;44.726;37.764;2023-02-10T05:54:52;7.65;;;2.67;;
75963;SDS011;65820;44.726;37.764;2023-02-10T05:55:53;7.90;;;3.10;;
75963;SDS011;65820;44.726;37.764;2023-02-10T05:56:54;8.85;;;3.00;;
75963;SDS011;65820;44.726;37.764;2023-02-10T05:57:56;7.53;;;3.17;;
75963;SDS011;65820;44.726;37.764;2023-02-10T05:58:57;10.75;;;3.53;;
75963;SDS011;65820;44.726;37.764;2023-02-10T05:59:58;7.15;;;2.90;;
75963;SDS011;65820;44.726;37.764;2023-02-10T06:01:00;8.95;;;3.10;;
75963;SDS011;65820;44.726;37.764;2023-02-10T06:02:07;9.48;;;3.30;;
75963;SDS011;65820;44.726;37.764;2023-02-10T06:03:08;9.65;;;3.00;;
75963;SDS011;65820;44.726;37.764;2023-02-10T06:04:09;9.23;;;2.90;;
75963;SDS011;65820;44.726;37.764;2023-02-10T06:05:11;6.75;;;2.53;;
75963;SDS011;65820;44.726;37.764;2023-02-10T06:06:12;7.15;;;2.72;;
75963;SDS011;65820;44.726;37.764;2023-02-10T06:07:14;8.05;;;3.03;;
75963;SDS011;65820;44.726;37.764;2023-02-10T06:08:17;7.38;;;2.75;;
75963;SDS011;65820;44.726;37.764;2023-02-10T06:09:20;7.25;;;2.88;;
75963;SDS011;65820;44.726;37.764;2023-02-10T06:10:23;9.07;;;3.28;;
75963;SDS011;65820;44.726;37.764;2023-02-10T06:11:24;8.88;;;2.70;;
75963;SDS011;65820;44.726;37.764;2023-02-10T06:12:25;9.00;;;3.63;;
75963;SDS011;65820;44.726;37.764;2023-02-10T06:13:27;6.22;;;2.65;;
75963;SDS011;65820;44.726;37.764;2023-02-10T06:14:28;9.05;;;2.78;;
75963;SDS011;65820;44.726;37.764;2023-02-10T06:15:30;8.70;;;3.05;;
75963;SDS011;65820;44.726;37.764;2023-02-10T06:17:29;9.13;;;2.78;;
75963;SDS011;65820;44.726;37.764;2023-02-10T06:18:32;9.60;;;3.35;;
75963;SDS011;65820;44.726;37.764;2023-02-10T06:19:33;8.68;;;2.55;;
75963;SDS011;65820;44.726;37.764;2023-02-10T06:20:35;8.68;;;3.03;;
75963;SDS011;65820;44.726;37.764;2023-02-10T06:21:37;7.25;;;3.15;;
75963;SDS011;65820;44.726;37.764;2023-02-10T06:22:38;6.97;;;2.38;;
75963;SDS011;65820;44.726;37.764;2023-02-10T06:23:39;7.03;;;2.65;;
75963;SDS011;65820;44.726;37.764;2023-02-10T06:24:41;6.82;;;2.78;;
75963;SDS011;65820;44.726;37.764;2023-02-10T06:25:42;7.70;;;2.72;;
75963;SDS011;65820;44.726;37.764;2023-02-10T06:26:44;8.40;;;2.83;;
75963;SDS011;65820;44.726;37.764;2023-02-10T06:27:45;7.65;;;2.53;;
75963;SDS011;65820;44.726;37.764;2023-02-10T06:28:46;7.80;;;3.25;;
75963;SDS011;65820;44.726;37.764;2023-02-10T06:29:48;6.28;;;2.88;;
75963;SDS011;65820;44.726;37.764;2023-02-10T06:30:49;6.85;;;2.60;;
75963;SDS011;65820;44.726;37.764;2023-02-10T06:31:50;8.75;;;2.58;;
75963;SDS011;65820;44.726;37.764;2023-02-10T06:32:52;6.63;;;2.63;;
75963;SDS011;65820;44.726;37.764;2023-02-10T06:33:53;5.80;;;2.22;;
75963;SDS011;65820;44.726;37.764;2023-02-10T06:34:55;7.32;;;3.00;;
75963;SDS011;65820;44.726;37.764;2023-02-10T06:35:56;7.32;;;2.42;;
75963;SDS011;65820;44.726;37.764;2023-02-10T06:36:57;7.97;;;2.80;;
75963;SDS011;65820;44.726;37.764;2023-02-10T06:37:59;8.18;;;2.63;;
75963;SDS011;65820;44.726;37.764;2023-02-10T06:39:00;7.95;;;2.75;;
75963;SDS011;65820;44.726;37.764;2023-02-10T06:40:04;6.40;;;2.55;;
75963;SDS011;65820;44.726;37.764;2023-02-10T06:41:07;7.13;;;2.60;;
75963;SDS011;65820;44.726;37.764;2023-02-10T06:42:08;5.85;;;2.35;;
75963;SDS011;65820;44.726;37.764;2023-02-10T06:43:09;7.15;;;2.60;;
75963;SDS011;65820;44.726;37.764;2023-02-10T06:44:11;6.22;;;2.60;;
75963;SDS011;65820;44.726;37.764;2023-02-10T06:45:12;9.23;;;3.10;;
75963;SDS011;65820;44.726;37.764;2023-02-10T06:46:14;7.20;;;2.60;;
75963;SDS011;65820;44.726;37.764;2023-02-10T06:47:16;7.93;;;2.90;;
75963;SDS011;65820;44.726;37.764;2023-02-10T06:48:17;8.27;;;2.58;;
75963;SDS011;65820;44.726;37.764;2023-02-10T06:49:18;6.70;;;2.53;;
75963;SDS011;65820;44.726;37.764;2023-02-10T06:50:20;8.60;;;2.78;;
75963;SDS011;65820;44.726;37.764;2023-02-10T06:51:22;6.70;;;2.35;;
75963;SDS011;65820;44.726;37.764;2023-02-10T06:52:23;6.72;;;2.78;;
75963;SDS011;65820;44.726;37.764;2023-02-10T06:53:27;6.18;;;2.42;;
75963;SDS011;65820;44.726;37.764;2023-02-10T06:54:28;6.05;;;2.72;;
75963;SDS011;65820;44.726;37.764;2023-02-10T06:55:30;6.53;;;2.63;;
75963;SDS011;65820;44.726;37.764;2023-02-10T06:56:31;7.20;;;2.63;;
75963;SDS011;65820;44.726;37.764;2023-02-10T06:57:33;7.47;;;2.70;;
75963;SDS011;65820;44.726;37.764;2023-02-10T06:58:36;8.18;;;2.95;;
75963;SDS011;65820;44.726;37.764;2023-02-10T06:59:37;6.15;;;2.95;;
75963;SDS011;65820;44.726;37.764;2023-02-10T07:00:38;6.28;;;2.42;;
75963;SDS011;65820;44.726;37.764;2023-02-10T07:01:40;8.02;;;2.72;;